Pennellville, New York
Current Conditions -  °F | °C
As of 4:54 AM on Monday 20 Oct 2014 (Local Time) from KFZY Reporting Station
Broken Clouds Broken Clouds  
Wind Chill: 34°   Ceiling: 11000
Heat Index: 40°   Visibility: 10mi
Dew Point: 34°   Wind: 9mph
Humidity: 79%   Direction: 200°SSW
Pressure: 29.99"   Gusts: NA
Location:  43.28°N, 76.27°W
Report Text: KFZY 200854Z AUTO 20008KT 10SM FEW041 BKN110 04/01 A2999 RMK AO2 SLP160 T00440011 57006
Loading
Personal Weather Stations






























Interactive Weather Map
Tropical Storm Tracking
New forecast layout! Learn more

10-Day Weather Forecast

Advertisements
Track Severe Weather on mobile